createdAt,value
2023-02-24T00:00:00.459Z,4.8
2023-02-24T00:01:00.051Z,4.8
2023-02-24T00:02:00.667Z,4.8
2023-02-24T00:03:00.266Z,4.8
2023-02-24T00:03:59.858Z,4.8
2023-02-24T00:05:00.464Z,4.8
2023-02-24T00:06:00.139Z,4.8
2023-02-24T00:07:00.639Z,4.8
2023-02-24T00:08:00.248Z,4.7
2023-02-24T00:08:59.834Z,4.7
2023-02-24T00:10:00.420Z,4.8
2023-02-24T00:11:00.025Z,4.8
2023-02-24T00:12:00.606Z,4.8
2023-02-24T00:13:00.197Z,4.8
2023-02-24T00:13:59.784Z,4.8
2023-02-24T00:15:00.399Z,4.8
2023-02-24T00:16:00.030Z,4.8
2023-02-24T00:17:00.665Z,4.8
2023-02-24T00:18:00.221Z,4.8
2023-02-24T00:18:59.808Z,4.7
2023-02-24T00:20:00.389Z,4.6
2023-02-24T00:20:59.997Z,4.6
2023-02-24T00:22:00.598Z,4.6
2023-02-24T00:23:00.220Z,4.7
2023-02-24T00:23:59.768Z,4.7
2023-02-24T00:25:00.340Z,4.6
2023-02-24T00:25:59.931Z,4.6
2023-02-24T00:27:00.525Z,4.5
2023-02-24T00:28:00.123Z,4.4
2023-02-24T00:28:59.716Z,4.4
2023-02-24T00:30:00.598Z,4.4
2023-02-24T00:31:00.094Z,4.3
2023-02-24T00:32:00.983Z,4.4
2023-02-24T00:32:59.787Z,4.4
2023-02-24T00:34:00.382Z,4.4
2023-02-24T00:34:59.988Z,4.4
2023-02-24T00:36:00.561Z,4.4
2023-02-24T00:37:00.149Z,4.4
2023-02-24T00:37:59.727Z,4.3
2023-02-24T00:39:00.301Z,4.3
2023-02-24T00:39:59.935Z,4.3
2023-02-24T00:41:00.498Z,4.3
2023-02-24T00:42:00.113Z,4.3
2023-02-24T00:43:00.695Z,4.4
2023-02-24T00:44:00.295Z,4.3
2023-02-24T00:44:59.904Z,4.3
2023-02-24T00:46:00.473Z,4.3
2023-02-24T00:47:00.104Z,4.3
2023-02-24T00:48:00.679Z,4.3
2023-02-24T00:49:00.270Z,4.3
2023-02-24T00:49:59.857Z,4.3
2023-02-24T00:51:00.431Z,4.3
2023-02-24T00:52:00.063Z,4.3
2023-02-24T00:53:00.614Z,4.3
2023-02-24T00:54:00.203Z,4.3
2023-02-24T00:54:59.771Z,4.3
2023-02-24T00:56:00.447Z,4.3
2023-02-24T00:57:00.025Z,4.3
2023-02-24T00:58:00.572Z,4.3
2023-02-24T00:59:00.200Z,4.3
2023-02-24T00:59:59.748Z,4.3
2023-02-24T01:01:00.333Z,4.3
2023-02-24T01:02:00.001Z,4.3
2023-02-24T01:03:00.536Z,4.3
2023-02-24T01:04:00.252Z,4.2
2023-02-24T01:04:59.700Z,4.2
2023-02-24T01:06:00.284Z,4.2
2023-02-24T01:06:59.886Z,4.3
2023-02-24T01:08:00.487Z,4.2
2023-02-24T01:09:00.097Z,4.3
2023-02-24T01:10:00.648Z,4.3
2023-02-24T01:11:00.237Z,4.3
2023-02-24T01:11:59.874Z,4.3
2023-02-24T01:13:00.439Z,4.3
2023-02-24T01:14:00.031Z,4.2
2023-02-24T01:15:00.627Z,4.3
2023-02-24T01:16:00.300Z,4.3
2023-02-24T01:16:59.827Z,4.3
2023-02-24T01:18:00.401Z,4.3
2023-02-24T01:19:00.016Z,4.3
2023-02-24T01:20:00.596Z,4.3
2023-02-24T01:21:00.183Z,4.3
2023-02-24T01:21:59.764Z,4.3
2023-02-24T01:23:00.353Z,4.3
2023-02-24T01:23:59.951Z,4.3
2023-02-24T01:25:00.553Z,4.3
2023-02-24T01:26:00.148Z,4.3
2023-02-24T01:26:59.725Z,4.4
2023-02-24T01:28:00.298Z,4.3
2023-02-24T01:28:59.897Z,4.4
2023-02-24T01:30:00.498Z,4.4
2023-02-24T01:31:00.267Z,4.4
2023-02-24T01:32:00.806Z,4.4
2023-02-24T01:33:00.710Z,4.4
2023-02-24T01:34:00.429Z,4.4
2023-02-24T01:35:00.046Z,4.4
2023-02-24T01:36:00.668Z,4.3
2023-02-24T01:37:00.322Z,4.4
2023-02-24T01:37:59.896Z,4.3
2023-02-24T01:39:00.469Z,4.3
2023-02-24T01:40:00.057Z,4.3
2023-02-24T01:41:00.665Z,4.3
2023-02-24T01:42:00.273Z,4.2
2023-02-24T01:42:59.861Z,4.3
2023-02-24T01:44:00.445Z,4.3
2023-02-24T01:45:00.035Z,4.3
2023-02-24T01:46:00.629Z,4.3
2023-02-24T01:47:00.224Z,4.3
2023-02-24T01:47:59.812Z,4.2
2023-02-24T01:49:00.386Z,4.2
2023-02-24T01:49:59.988Z,4.2
2023-02-24T01:51:00.612Z,4.2
2023-02-24T01:52:00.198Z,4.2
2023-02-24T01:52:59.907Z,4.2
2023-02-24T01:54:00.358Z,4.2
2023-02-24T01:55:00.216Z,4.2
2023-02-24T01:56:00.637Z,4.1
2023-02-24T01:57:00.196Z,4.1
2023-02-24T01:57:59.804Z,4.1
2023-02-24T01:59:00.355Z,4.2
2023-02-24T01:59:59.944Z,4.1
2023-02-24T02:01:00.529Z,4
2023-02-24T02:02:00.619Z,4
2023-02-24T02:03:00.274Z,4
2023-02-24T02:04:00.322Z,4
2023-02-24T02:05:00.288Z,3.9
2023-02-24T02:06:00.490Z,4
2023-02-24T02:07:00.424Z,3.9
2023-02-24T02:08:00.712Z,3.9
2023-02-24T02:09:00.335Z,3.9
2023-02-24T02:09:59.916Z,3.8
2023-02-24T02:11:00.486Z,3.9
2023-02-24T02:12:00.420Z,3.9
2023-02-24T02:13:00.663Z,3.9
2023-02-24T02:14:00.339Z,3.9
2023-02-24T02:14:59.868Z,3.9
2023-02-24T02:16:00.457Z,3.9
2023-02-24T02:17:00.054Z,3.8
2023-02-24T02:18:00.704Z,3.8
2023-02-24T02:19:00.779Z,3.8
2023-02-24T02:20:00.745Z,3.8
2023-02-24T02:21:00.336Z,3.8
2023-02-24T02:21:59.947Z,3.8
2023-02-24T02:23:00.760Z,3.7
2023-02-24T02:24:00.162Z,3.8
2023-02-24T02:24:59.720Z,3.7
2023-02-24T02:26:00.315Z,3.7
2023-02-24T02:26:59.902Z,3.7
2023-02-24T02:28:00.492Z,3.6
2023-02-24T02:29:00.119Z,3.6
2023-02-24T02:30:00.671Z,3.7
2023-02-24T02:31:00.295Z,3.7
2023-02-24T02:31:59.996Z,3.7
2023-02-24T02:33:00.476Z,3.7
2023-02-24T02:34:00.063Z,3.8
2023-02-24T02:35:00.648Z,3.7
2023-02-24T02:36:00.259Z,3.7
2023-02-24T02:36:59.849Z,3.7
2023-02-24T02:38:00.442Z,3.6
2023-02-24T02:39:00.108Z,3.6
2023-02-24T02:40:00.645Z,3.6
2023-02-24T02:41:00.263Z,3.6
2023-02-24T02:41:59.849Z,3.6
2023-02-24T02:43:00.425Z,3.6
2023-02-24T02:44:00.038Z,3.6
2023-02-24T02:45:00.585Z,3.5
2023-02-24T02:46:00.263Z,3.5
2023-02-24T02:46:59.753Z,3.5
2023-02-24T02:48:00.330Z,3.6
2023-02-24T02:48:59.949Z,3.5
2023-02-24T02:50:00.493Z,3.5
2023-02-24T02:51:00.090Z,3.5
2023-02-24T02:52:00.658Z,3.5
2023-02-24T02:53:00.251Z,3.5
2023-02-24T02:53:59.855Z,3.5
2023-02-24T02:55:00.478Z,3.5
2023-02-24T02:56:00.099Z,3.5
2023-02-24T02:56:59.767Z,3.5
2023-02-24T02:58:00.255Z,3.5
2023-02-24T02:58:59.857Z,3.5
2023-02-24T03:00:00.467Z,3.5
2023-02-24T03:01:00.130Z,3.5
2023-02-24T03:02:00.632Z,3.5
2023-02-24T03:03:00.224Z,3.5
2023-02-24T03:03:59.816Z,3.5
2023-02-24T03:05:00.505Z,3.5
2023-02-24T03:06:00.093Z,3.6
2023-02-24T03:07:00.634Z,3.5
2023-02-24T03:08:00.228Z,3.6
2023-02-24T03:08:59.816Z,3.5
2023-02-24T03:10:00.410Z,3.5
2023-02-24T03:11:00.029Z,3.5
2023-02-24T03:12:00.595Z,3.5
2023-02-24T03:13:00.187Z,3.5
2023-02-24T03:13:59.778Z,3.5
2023-02-24T03:15:00.372Z,3.4
2023-02-24T03:15:59.986Z,3.4
2023-02-24T03:17:00.584Z,3.4
2023-02-24T03:18:00.177Z,3.5
2023-02-24T03:18:59.768Z,3.4
2023-02-24T03:20:00.342Z,3.4
2023-02-24T03:20:59.951Z,3.4
2023-02-24T03:22:00.512Z,3.4
2023-02-24T03:23:00.131Z,3.4
2023-02-24T03:23:59.679Z,3.4
2023-02-24T03:25:00.259Z,3.3
2023-02-24T03:25:59.847Z,3.3
2023-02-24T03:27:00.457Z,3.3
2023-02-24T03:28:00.090Z,3.3
2023-02-24T03:29:00.637Z,3.3
2023-02-24T03:30:00.243Z,3.3
2023-02-24T03:30:59.886Z,3.3
2023-02-24T03:32:00.585Z,3.4
2023-02-24T03:33:00.107Z,3.3
2023-02-24T03:34:00.673Z,3.3
2023-02-24T03:35:00.288Z,3.3
2023-02-24T03:35:59.861Z,3.3
2023-02-24T03:37:00.436Z,3.3
2023-02-24T03:38:00.055Z,3.2
2023-02-24T03:39:00.622Z,3.3
2023-02-24T03:40:00.210Z,3.3
2023-02-24T03:40:59.828Z,3.3
2023-02-24T03:42:00.389Z,3.2
2023-02-24T03:43:00.028Z,3.2
2023-02-24T03:44:00.570Z,3.2
2023-02-24T03:45:00.163Z,3.2
2023-02-24T03:45:59.768Z,3.2
2023-02-24T03:47:00.313Z,3.2
2023-02-24T03:47:59.908Z,3.2
2023-02-24T03:49:00.500Z,3.1
2023-02-24T03:50:00.146Z,3.1
2023-02-24T03:51:00.700Z,3
2023-02-24T03:52:00.298Z,3
2023-02-24T03:52:59.885Z,3
2023-02-24T03:54:00.485Z,3
2023-02-24T03:55:00.112Z,3
2023-02-24T03:56:00.656Z,2.9
2023-02-24T03:57:00.339Z,2.9
2023-02-24T03:57:59.924Z,2.9
2023-02-24T03:59:00.527Z,2.9
2023-02-24T04:00:00.122Z,3
2023-02-24T04:00:59.694Z,3
2023-02-24T04:02:00.335Z,3
2023-02-24T04:02:59.922Z,3.1
2023-02-24T04:04:00.546Z,3.1
2023-02-24T04:05:00.186Z,3.1
2023-02-24T04:05:59.726Z,3.1
2023-02-24T04:07:00.307Z,3.1
2023-02-24T04:07:59.891Z,3.1
2023-02-24T04:09:00.497Z,3.1
2023-02-24T04:10:00.130Z,3.2
2023-02-24T04:11:00.676Z,3.2
2023-02-24T04:12:00.274Z,3.2
2023-02-24T04:12:59.876Z,3.1
2023-02-24T04:14:00.449Z,3.1
2023-02-24T04:15:00.077Z,3.1
2023-02-24T04:16:00.640Z,3.1
2023-02-24T04:17:00.230Z,3
2023-02-24T04:17:59.818Z,3
2023-02-24T04:19:00.404Z,3
2023-02-24T04:19:59.996Z,3.1
2023-02-24T04:21:00.586Z,3.2
2023-02-24T04:22:00.180Z,3.2
2023-02-24T04:22:59.774Z,3.2
2023-02-24T04:24:00.342Z,3.2
2023-02-24T04:24:59.936Z,3.2
2023-02-24T04:26:00.528Z,3.2
2023-02-24T04:27:00.116Z,3.2
2023-02-24T04:27:59.701Z,3.3
2023-02-24T04:29:00.276Z,3.3
2023-02-24T04:29:59.865Z,3.4
2023-02-24T04:31:00.633Z,3.4
2023-02-24T04:32:00.283Z,3.4
2023-02-24T04:32:59.696Z,3.3
2023-02-24T04:34:00.295Z,3.4
2023-02-24T04:34:59.898Z,3.4
2023-02-24T04:36:00.501Z,3.4
2023-02-24T04:37:00.120Z,3.4
2023-02-24T04:37:59.695Z,3.4
2023-02-24T04:39:00.314Z,3.3
2023-02-24T04:39:59.907Z,3.3
2023-02-24T04:41:00.490Z,3.3
2023-02-24T04:42:00.101Z,3.4
2023-02-24T04:43:00.666Z,3.3
2023-02-24T04:44:00.274Z,3.3
2023-02-24T04:44:59.911Z,3.3
2023-02-24T04:46:00.498Z,3.3
2023-02-24T04:47:00.122Z,3.2
2023-02-24T04:48:00.696Z,3.3
2023-02-24T04:49:00.305Z,3.3
2023-02-24T04:49:59.909Z,3.3
2023-02-24T04:51:00.477Z,3.3
2023-02-24T04:52:00.114Z,3.3
2023-02-24T04:53:00.644Z,3.3
2023-02-24T04:54:00.255Z,3.3
2023-02-24T04:54:59.855Z,3.3
2023-02-24T04:56:00.476Z,3.3
2023-02-24T04:57:00.089Z,3.3
2023-02-24T04:57:59.725Z,3.3
2023-02-24T04:59:00.225Z,3.4
2023-02-24T04:59:59.821Z,3.4
2023-02-24T05:01:00.428Z,3.4
2023-02-24T05:02:00.019Z,3.4
2023-02-24T05:03:00.629Z,3.4
2023-02-24T05:04:00.393Z,3.5
2023-02-24T05:04:59.918Z,3.5
2023-02-24T05:06:00.590Z,3.5
2023-02-24T05:07:00.092Z,3.5
2023-02-24T05:07:59.680Z,3.5
2023-02-24T05:09:00.275Z,3.5
2023-02-24T05:09:59.867Z,3.4
2023-02-24T05:11:00.450Z,3.4
2023-02-24T05:12:00.181Z,3.5
2023-02-24T05:13:02.339Z,3.4
2023-02-24T05:14:00.045Z,3.4
2023-02-24T05:15:00.656Z,3.4
2023-02-24T05:16:00.298Z,3.3
2023-02-24T05:16:59.866Z,3.4
2023-02-24T05:18:00.455Z,3.4
2023-02-24T05:19:00.101Z,3.4
2023-02-24T05:20:00.660Z,3.4
2023-02-24T05:21:01.750Z,3.5
2023-02-24T05:22:00.479Z,3.5
2023-02-24T05:23:00.096Z,3.5
2023-02-24T05:23:59.708Z,3.4
2023-02-24T05:25:00.269Z,3.4
2023-02-24T05:25:59.862Z,3.4
2023-02-24T05:27:00.440Z,3.3
2023-02-24T05:28:00.038Z,3.4
2023-02-24T05:29:00.638Z,3.5
2023-02-24T05:30:00.251Z,3.5
2023-02-24T05:30:59.950Z,3.5
2023-02-24T05:32:00.623Z,3.6
2023-02-24T05:33:00.135Z,3.5
2023-02-24T05:34:00.664Z,3.5
2023-02-24T05:35:00.306Z,3.6
2023-02-24T05:35:59.883Z,3.5
2023-02-24T05:37:00.455Z,3.5
2023-02-24T05:38:00.047Z,3.4
2023-02-24T05:39:00.626Z,3.4
2023-02-24T05:40:00.242Z,3.3
2023-02-24T05:40:59.853Z,3.3
2023-02-24T05:42:00.410Z,3.3
2023-02-24T05:43:00.000Z,3.3
2023-02-24T05:44:00.583Z,3.3
2023-02-24T05:45:00.194Z,3.3
2023-02-24T05:45:59.744Z,3.3
2023-02-24T05:47:00.406Z,3.3
2023-02-24T05:47:59.989Z,3.3
2023-02-24T05:49:00.576Z,3.4
2023-02-24T05:50:00.182Z,3.5
2023-02-24T05:50:59.779Z,3.5
2023-02-24T05:52:00.362Z,3.4
2023-02-24T05:52:59.950Z,3.3
2023-02-24T05:54:00.538Z,3.3
2023-02-24T05:55:00.125Z,3.3
2023-02-24T05:55:59.713Z,3.3
2023-02-24T05:57:00.317Z,3.3
2023-02-24T05:57:59.932Z,3.3
2023-02-24T05:59:00.571Z,3.3
2023-02-24T06:00:00.148Z,3.3
2023-02-24T06:00:59.704Z,3.3
2023-02-24T06:02:00.393Z,3.3
2023-02-24T06:02:59.994Z,3.3
2023-02-24T06:04:00.536Z,3.4
2023-02-24T06:05:00.131Z,3.3
2023-02-24T06:05:59.715Z,3.3
2023-02-24T06:07:00.310Z,3.3
2023-02-24T06:07:59.916Z,3.3
2023-02-24T06:09:00.486Z,3.4
2023-02-24T06:10:00.204Z,3.3
2023-02-24T06:11:00.665Z,3.4
2023-02-24T06:12:00.349Z,3.5
2023-02-24T06:12:59.912Z,3.4
2023-02-24T06:14:00.488Z,3.4
2023-02-24T06:15:00.106Z,3.4
2023-02-24T06:16:00.748Z,3.4
2023-02-24T06:17:00.364Z,3.5
2023-02-24T06:17:59.885Z,3.5
2023-02-24T06:19:00.454Z,3.6
2023-02-24T06:20:00.098Z,3.5
2023-02-24T06:21:00.616Z,3.5
2023-02-24T06:22:00.208Z,3.4
2023-02-24T06:22:59.819Z,3.4
2023-02-24T06:24:00.403Z,3.5
2023-02-24T06:24:59.994Z,3.4
2023-02-24T06:26:00.580Z,3.4
2023-02-24T06:27:00.165Z,3.4
2023-02-24T06:27:59.743Z,3.4
2023-02-24T06:29:00.358Z,3.3
2023-02-24T06:29:59.948Z,3.4
2023-02-24T06:31:00.578Z,3.4
2023-02-24T06:32:00.330Z,3.4
2023-02-24T06:32:59.833Z,3.3
2023-02-24T06:34:00.347Z,3.3
2023-02-24T06:34:59.963Z,3.3
2023-02-24T06:36:00.513Z,3.3
2023-02-24T06:37:00.113Z,3.3
2023-02-24T06:37:59.676Z,3.3
2023-02-24T06:39:00.288Z,3.3
2023-02-24T06:39:59.940Z,3.3
2023-02-24T06:41:00.509Z,3.3
2023-02-24T06:42:00.137Z,3.3
2023-02-24T06:42:59.689Z,3.3
2023-02-24T06:44:00.271Z,3.3
2023-02-24T06:44:59.893Z,3.2
2023-02-24T06:46:00.468Z,3.2
2023-02-24T06:47:00.119Z,3.2
2023-02-24T06:48:00.672Z,3.2
2023-02-24T06:49:00.273Z,3.2
2023-02-24T06:49:59.885Z,3.2
2023-02-24T06:51:00.459Z,3.3
2023-02-24T06:52:00.056Z,3.3
2023-02-24T06:53:00.728Z,3.3
2023-02-24T06:54:00.396Z,3.3
2023-02-24T06:54:59.878Z,3.2
2023-02-24T06:56:00.448Z,3.2
2023-02-24T06:57:00.041Z,3.2
2023-02-24T06:58:00.611Z,3.2
2023-02-24T06:59:00.308Z,3.2
2023-02-24T06:59:59.833Z,3.2
2023-02-24T07:01:00.444Z,3.2
2023-02-24T07:02:00.051Z,3.2
2023-02-24T07:03:00.627Z,3.2
2023-02-24T07:04:00.253Z,3.2
2023-02-24T07:04:59.877Z,3.2
2023-02-24T07:06:00.478Z,3.2
2023-02-24T07:07:00.085Z,3.3
2023-02-24T07:08:00.635Z,3.3
2023-02-24T07:09:00.225Z,3.3
2023-02-24T07:09:59.810Z,3.4
2023-02-24T07:11:00.452Z,3.4
2023-02-24T07:12:00.205Z,3.4
2023-02-24T07:13:00.610Z,3.3
2023-02-24T07:14:00.200Z,3.4
2023-02-24T07:14:59.796Z,3.4
2023-02-24T07:16:00.385Z,3.4
2023-02-24T07:17:00.111Z,3.4
2023-02-24T07:18:00.579Z,3.5
2023-02-24T07:19:00.177Z,3.5
2023-02-24T07:19:59.763Z,3.5
2023-02-24T07:21:00.344Z,3.6
2023-02-24T07:22:00.375Z,3.6
2023-02-24T07:23:00.114Z,3.6
2023-02-24T07:23:59.893Z,3.6
2023-02-24T07:25:00.423Z,3.7
2023-02-24T07:26:00.020Z,3.7
2023-02-24T07:27:00.582Z,3.7
2023-02-24T07:28:00.201Z,3.6
2023-02-24T07:28:59.828Z,3.7
2023-02-24T07:30:00.551Z,3.6
2023-02-24T07:31:00.137Z,3.6
2023-02-24T07:32:00.768Z,3.7
2023-02-24T07:33:00.455Z,3.7
2023-02-24T07:33:59.944Z,3.6
2023-02-24T07:35:00.440Z,3.6
2023-02-24T07:36:00.031Z,3.6
2023-02-24T07:37:00.601Z,3.7
2023-02-24T07:38:00.214Z,3.7
2023-02-24T07:38:59.814Z,3.6
2023-02-24T07:40:00.422Z,3.7
2023-02-24T07:41:00.043Z,3.7
2023-02-24T07:42:00.615Z,3.8
2023-02-24T07:43:00.228Z,3.7
2023-02-24T07:43:59.847Z,3.7
2023-02-24T07:45:00.452Z,3.8
2023-02-24T07:46:00.095Z,3.8
2023-02-24T07:47:00.652Z,3.8
2023-02-24T07:48:01.355Z,3.7
2023-02-24T07:49:00.044Z,3.8
2023-02-24T07:50:00.469Z,3.8
2023-02-24T07:51:00.092Z,3.8
2023-02-24T07:52:00.664Z,3.9
2023-02-24T07:53:00.423Z,4
2023-02-24T07:53:59.874Z,4
2023-02-24T07:55:00.462Z,4
2023-02-24T07:56:00.102Z,3.9
2023-02-24T07:57:00.635Z,4
2023-02-24T07:58:00.234Z,3.9
2023-02-24T07:58:59.845Z,4
2023-02-24T08:00:00.631Z,4
2023-02-24T08:01:00.112Z,4
2023-02-24T08:02:00.725Z,4
2023-02-24T08:03:00.335Z,4
2023-02-24T08:03:59.876Z,3.9
2023-02-24T08:05:00.465Z,4
2023-02-24T08:06:00.097Z,4
2023-02-24T08:07:00.628Z,4
2023-02-24T08:08:00.222Z,3.9
2023-02-24T08:08:59.806Z,3.9
2023-02-24T08:10:00.390Z,3.9
2023-02-24T08:10:59.992Z,4
2023-02-24T08:12:00.561Z,4
2023-02-24T08:13:00.150Z,4
2023-02-24T08:13:59.720Z,4
2023-02-24T08:15:00.358Z,4
2023-02-24T08:16:00.026Z,4
2023-02-24T08:17:00.527Z,4
2023-02-24T08:18:00.131Z,4
2023-02-24T08:18:59.717Z,4.1
2023-02-24T08:20:00.287Z,4.1
2023-02-24T08:20:59.896Z,4.1
2023-02-24T08:22:00.462Z,4
2023-02-24T08:23:00.074Z,4
2023-02-24T08:24:00.632Z,4
2023-02-24T08:25:00.230Z,4
2023-02-24T08:25:59.845Z,4.1
2023-02-24T08:27:00.419Z,4.1
2023-02-24T08:28:07.710Z,4.1
2023-02-24T08:29:00.567Z,4.2
2023-02-24T08:30:00.322Z,4.1
2023-02-24T08:30:59.878Z,4.2
2023-02-24T08:32:00.461Z,4.2
2023-02-24T08:33:00.000Z,4.3
2023-02-24T08:34:00.564Z,4.3
2023-02-24T08:35:00.152Z,4.3
2023-02-24T08:35:59.750Z,4.3
2023-02-24T08:37:00.304Z,4.3
2023-02-24T08:37:59.891Z,4.3
2023-02-24T08:39:00.488Z,4.3
2023-02-24T08:40:00.095Z,4.3
2023-02-24T08:41:00.660Z,4.3
2023-02-24T08:42:00.273Z,4.3
2023-02-24T08:42:59.879Z,4.3
2023-02-24T08:44:00.792Z,4.3
2023-02-24T08:45:00.106Z,4.3
2023-02-24T08:45:59.679Z,4.3
2023-02-24T08:47:00.367Z,4.3
2023-02-24T08:47:59.936Z,4.3
2023-02-24T08:49:00.552Z,4.2
2023-02-24T08:50:00.238Z,4.3
2023-02-24T08:50:59.736Z,4.3
2023-02-24T08:52:00.311Z,4.3
2023-02-24T08:52:59.902Z,4.3
2023-02-24T08:54:00.506Z,4.3
2023-02-24T08:55:00.136Z,4.2
2023-02-24T08:55:59.687Z,4.3
2023-02-24T08:57:00.252Z,4.3
2023-02-24T08:57:59.844Z,4.3
2023-02-24T08:59:00.446Z,4.4
2023-02-24T09:00:00.036Z,4.5
2023-02-24T09:01:00.764Z,4.5
2023-02-24T09:02:04.470Z,4.5
2023-02-24T09:02:59.967Z,4.4
2023-02-24T09:04:00.475Z,4.4
2023-02-24T09:05:00.174Z,4.4
2023-02-24T09:06:00.687Z,4.5
2023-02-24T09:07:11.177Z,4.5
2023-02-24T09:07:59.817Z,4.5
2023-02-24T09:09:00.405Z,4.6
2023-02-24T09:09:59.994Z,4.6
2023-02-24T09:11:00.602Z,4.5
2023-02-24T09:12:00.191Z,4.6
2023-02-24T09:12:59.780Z,4.6
2023-02-24T09:14:00.364Z,4.7
2023-02-24T09:14:59.951Z,4.7
2023-02-24T09:16:00.662Z,4.8
2023-02-24T09:17:00.202Z,4.8
2023-02-24T09:17:59.783Z,4.8
2023-02-24T09:19:00.390Z,4.8
2023-02-24T09:19:59.986Z,4.9
2023-02-24T09:21:00.605Z,4.8
2023-02-24T09:22:00.214Z,4.8
2023-02-24T09:23:00.640Z,4.8
2023-02-24T09:24:00.349Z,4.8
2023-02-24T09:24:59.939Z,4.8
2023-02-24T09:26:00.550Z,4.8
2023-02-24T09:27:00.188Z,4.7
2023-02-24T09:27:59.714Z,4.8
2023-02-24T09:29:00.318Z,4.8
2023-02-24T09:29:59.908Z,4.7
2023-02-24T09:31:00.604Z,4.7
2023-02-24T09:32:00.350Z,4.8
2023-02-24T09:32:59.821Z,4.7
2023-02-24T09:34:00.322Z,4.6
2023-02-24T09:34:59.964Z,4.6
2023-02-24T09:36:00.559Z,4.7
2023-02-24T09:37:00.147Z,4.7
2023-02-24T09:37:59.722Z,4.7
2023-02-24T09:39:00.494Z,4.8
2023-02-24T09:39:59.968Z,4.8
2023-02-24T09:41:04.781Z,4.8
2023-02-24T09:42:00.115Z,4.8
2023-02-24T09:42:59.707Z,4.7
2023-02-24T09:44:00.314Z,4.8
2023-02-24T09:44:59.901Z,4.8
2023-02-24T09:46:00.617Z,4.8
2023-02-24T09:47:00.144Z,4.7
2023-02-24T09:47:59.708Z,4.7
2023-02-24T09:49:00.316Z,4.8
2023-02-24T09:49:59.928Z,4.8
2023-02-24T09:51:03.538Z,4.7
2023-02-24T09:52:00.029Z,4.6
2023-02-24T09:53:09.793Z,4.7
2023-02-24T09:54:00.185Z,4.6
2023-02-24T09:54:59.785Z,4.6
2023-02-24T09:56:00.488Z,4.5
2023-02-24T09:57:00.031Z,4.6
2023-02-24T09:58:00.621Z,4.5
2023-02-24T09:59:00.262Z,4.5
2023-02-24T09:59:59.879Z,4.5
2023-02-24T10:01:00.514Z,4.5
2023-02-24T10:02:00.200Z,4.5
2023-02-24T10:03:00.673Z,4.6
2023-02-24T10:04:02.335Z,4.6
2023-02-24T10:04:59.978Z,4.6
2023-02-24T10:06:00.477Z,4.5
2023-02-24T10:07:00.247Z,4.4
2023-02-24T10:08:00.657Z,4.4
2023-02-24T10:09:00.281Z,4.4
2023-02-24T10:10:00.010Z,4.4
2023-02-24T10:11:00.572Z,4.4
2023-02-24T10:12:00.181Z,4.4
2023-02-24T10:12:59.682Z,4.5
2023-02-24T10:14:03.636Z,4.5
2023-02-24T10:15:00.346Z,4.5
2023-02-24T10:16:06.085Z,4.6
2023-02-24T10:17:00.894Z,4.6
2023-02-24T10:18:00.552Z,4.4
2023-02-24T10:19:00.158Z,4.3
2023-02-24T10:19:59.764Z,4.3
2023-02-24T10:21:00.438Z,4.3
2023-02-24T10:22:00.002Z,4.3
2023-02-24T10:23:00.634Z,4.3
2023-02-24T10:24:00.223Z,4.3
2023-02-24T10:24:59.820Z,4.3
2023-02-24T10:26:06.619Z,4.3
2023-02-24T10:27:07.341Z,4.3
2023-02-24T10:28:00.502Z,4.3
2023-02-24T10:29:00.106Z,4.3
2023-02-24T10:29:59.700Z,4.3
2023-02-24T10:31:00.430Z,4.3
2023-02-24T10:32:00.111Z,4.3
2023-02-24T10:33:00.598Z,4.3
2023-02-24T10:34:00.166Z,4.3
2023-02-24T10:34:59.748Z,4.4
2023-02-24T10:36:00.333Z,4.3
2023-02-24T10:36:59.942Z,4.3
2023-02-24T10:38:00.508Z,4.3
2023-02-24T10:39:00.147Z,4.3
2023-02-24T10:40:00.724Z,4.4
2023-02-24T10:41:00.324Z,4.4
2023-02-24T10:41:59.926Z,4.4
2023-02-24T10:43:00.500Z,4.4
2023-02-24T10:44:00.302Z,4.3
2023-02-24T10:45:02.437Z,4.3
2023-02-24T10:46:00.230Z,4.3
2023-02-24T10:46:59.963Z,4.2
2023-02-24T10:48:00.423Z,4.2
2023-02-24T10:49:00.014Z,4.1
2023-02-24T10:50:00.594Z,4.3
2023-02-24T10:51:00.205Z,4.3
2023-02-24T10:51:59.775Z,4.2
2023-02-24T10:53:00.374Z,4.2
2023-02-24T10:54:00.040Z,4.2
2023-02-24T10:55:00.598Z,4.1
2023-02-24T10:56:00.228Z,4.1
2023-02-24T10:56:59.771Z,4.1
2023-02-24T10:58:00.353Z,4
2023-02-24T10:59:01.745Z,4
2023-02-24T11:00:00.421Z,4
2023-02-24T11:01:00.051Z,4
2023-02-24T11:02:00.668Z,4
2023-02-24T11:03:00.258Z,4
2023-02-24T11:03:59.858Z,4.1
2023-02-24T11:05:01.238Z,4.1
2023-02-24T11:06:00.383Z,4
2023-02-24T11:07:00.665Z,3.9
2023-02-24T11:08:00.253Z,3.8
2023-02-24T11:08:59.862Z,3.8
2023-02-24T11:10:00.425Z,3.9
2023-02-24T11:11:00.046Z,3.9
2023-02-24T11:12:00.582Z,3.9
2023-02-24T11:13:07.974Z,4
2023-02-24T11:13:59.730Z,3.9
2023-02-24T11:15:00.338Z,3.9
2023-02-24T11:16:00.011Z,3.9
2023-02-24T11:17:00.521Z,3.8
2023-02-24T11:18:00.227Z,3.8
2023-02-24T11:18:59.695Z,3.8
2023-02-24T11:20:00.308Z,3.8
2023-02-24T11:20:59.898Z,3.8
2023-02-24T11:22:00.490Z,3.8
2023-02-24T11:23:00.097Z,3.8
2023-02-24T11:24:00.665Z,3.8
2023-02-24T11:25:01.774Z,3.7
2023-02-24T11:26:00.473Z,3.8
2023-02-24T11:27:00.101Z,3.8
2023-02-24T11:27:59.707Z,3.7
2023-02-24T11:29:00.277Z,3.8
2023-02-24T11:29:59.863Z,3.9
2023-02-24T11:31:00.586Z,3.8
2023-02-24T11:32:00.213Z,3.9
2023-02-24T11:32:59.744Z,3.8
2023-02-24T11:34:00.279Z,3.7
2023-02-24T11:34:59.864Z,3.8
2023-02-24T11:36:00.482Z,3.8
2023-02-24T11:37:00.105Z,3.7
2023-02-24T11:38:00.914Z,3.9
2023-02-24T11:39:11.794Z,3.8
2023-02-24T11:40:00.060Z,3.8
2023-02-24T11:41:00.489Z,3.9
2023-02-24T11:42:00.127Z,3.8
2023-02-24T11:43:00.728Z,3.8
2023-02-24T11:44:00.316Z,3.8
2023-02-24T11:44:59.903Z,3.8
2023-02-24T11:46:00.569Z,3.8
2023-02-24T11:47:00.157Z,3.8
2023-02-24T11:47:59.744Z,3.8
2023-02-24T11:49:00.298Z,3.8
2023-02-24T11:49:59.889Z,3.8
2023-02-24T11:51:00.471Z,3.8
2023-02-24T11:52:00.087Z,3.9
2023-02-24T11:53:00.648Z,3.8
2023-02-24T11:54:00.247Z,3.8
2023-02-24T11:54:59.840Z,3.9
2023-02-24T11:56:00.407Z,3.9
2023-02-24T11:57:00.000Z,3.8
2023-02-24T11:58:00.600Z,3.7
2023-02-24T11:59:00.219Z,3.6
2023-02-24T11:59:59.774Z,3.5
2023-02-24T12:01:00.355Z,3.7
2023-02-24T12:01:59.941Z,3.7
2023-02-24T12:03:02.269Z,3.7
2023-02-24T12:04:00.141Z,3.6
2023-02-24T12:04:59.750Z,3.7
2023-02-24T12:06:00.450Z,3.6
2023-02-24T12:06:59.979Z,3.5
2023-02-24T12:08:00.584Z,3.5
2023-02-24T12:09:00.171Z,3.5
2023-02-24T12:10:10.590Z,3.5
2023-02-24T12:11:00.299Z,3.5
2023-02-24T12:11:59.885Z,3.4
2023-02-24T12:13:00.489Z,3.4
2023-02-24T12:14:00.124Z,3.5
2023-02-24T12:14:59.741Z,3.7
2023-02-24T12:16:00.332Z,3.7
2023-02-24T12:16:59.939Z,3.6
2023-02-24T12:18:00.545Z,3.5
2023-02-24T12:19:00.132Z,3.6
2023-02-24T12:19:59.721Z,3.5
2023-02-24T12:21:00.310Z,3.6
2023-02-24T12:21:59.915Z,3.5
2023-02-24T12:23:00.517Z,3.6
2023-02-24T12:24:00.118Z,3.6
2023-02-24T12:24:59.678Z,3.4
2023-02-24T12:26:00.250Z,3.5
2023-02-24T12:26:59.843Z,3.4
2023-02-24T12:28:00.441Z,3.4
2023-02-24T12:29:00.048Z,3.4
2023-02-24T12:30:00.617Z,3.4
2023-02-24T12:31:00.301Z,3.4
2023-02-24T12:32:00.026Z,3.4
2023-02-24T12:33:00.729Z,3.3
2023-02-24T12:34:00.105Z,3.4
2023-02-24T12:35:00.664Z,3.4
2023-02-24T12:36:00.256Z,3.3
2023-02-24T12:36:59.863Z,3.3
2023-02-24T12:38:00.441Z,3.4
2023-02-24T12:39:00.045Z,3.5
2023-02-24T12:40:00.631Z,3.5
2023-02-24T12:41:00.223Z,3.4
2023-02-24T12:41:59.812Z,3.4
2023-02-24T12:43:00.392Z,3.3
2023-02-24T12:43:59.981Z,3.3
2023-02-24T12:45:00.598Z,3.3
2023-02-24T12:46:00.253Z,3.2
2023-02-24T12:46:59.807Z,3.3
2023-02-24T12:48:00.358Z,3.3
2023-02-24T12:48:59.950Z,3.3
2023-02-24T12:50:00.543Z,3.3
2023-02-24T12:51:00.130Z,3.3
2023-02-24T12:51:59.716Z,3.3
2023-02-24T12:53:00.295Z,3.3
2023-02-24T12:53:59.986Z,3.4
2023-02-24T12:55:00.494Z,3.4
2023-02-24T12:56:00.117Z,3.4
2023-02-24T12:57:00.670Z,3.4
2023-02-24T12:58:00.291Z,3.4
2023-02-24T12:58:59.987Z,3.3
2023-02-24T13:00:00.494Z,3.3
2023-02-24T13:01:00.200Z,3.3
2023-02-24T13:01:59.751Z,3.3
2023-02-24T13:03:00.313Z,3.3
2023-02-24T13:04:00.113Z,3.3
2023-02-24T13:05:00.487Z,3.3
2023-02-24T13:06:00.137Z,3.4
2023-02-24T13:07:00.663Z,3.4
2023-02-24T13:08:00.426Z,3.4
2023-02-24T13:08:59.908Z,3.3
2023-02-24T13:10:00.496Z,3.3
2023-02-24T13:11:00.115Z,3.2
2023-02-24T13:11:59.688Z,3.3
2023-02-24T13:13:00.430Z,3.2
2023-02-24T13:13:59.914Z,3.1
2023-02-24T13:15:00.498Z,3.2
2023-02-24T13:16:00.118Z,3.2
2023-02-24T13:17:00.747Z,3.1
2023-02-24T13:18:00.415Z,3.1
2023-02-24T13:18:59.932Z,3.2
2023-02-24T13:20:00.648Z,3.2
2023-02-24T13:21:00.142Z,3.1
2023-02-24T13:21:59.746Z,3.1
2023-02-24T13:23:00.325Z,3.1
2023-02-24T13:23:59.909Z,3.1
2023-02-24T13:25:00.493Z,3.1
2023-02-24T13:26:00.117Z,3.2
2023-02-24T13:26:59.702Z,3.2
2023-02-24T13:28:00.269Z,3.2
2023-02-24T13:28:59.865Z,3.2
2023-02-24T13:30:00.451Z,3.2
2023-02-24T13:31:00.080Z,3.3
2023-02-24T13:32:00.752Z,3.3
2023-02-24T13:33:00.385Z,3.3
2023-02-24T13:33:59.907Z,3.3
2023-02-24T13:35:00.494Z,3.3
2023-02-24T13:36:00.101Z,3.3
2023-02-24T13:37:00.663Z,3.3
2023-02-24T13:38:00.251Z,3.2
2023-02-24T13:38:59.931Z,3.2
2023-02-24T13:40:00.428Z,3.2
2023-02-24T13:41:00.027Z,3.2
2023-02-24T13:42:00.614Z,3.2
2023-02-24T13:43:00.207Z,3.4
2023-02-24T13:43:59.814Z,3.3
2023-02-24T13:45:00.405Z,3.3
2023-02-24T13:46:00.095Z,3.3
2023-02-24T13:47:00.568Z,3.3
2023-02-24T13:48:01.782Z,3.3
2023-02-24T13:48:59.701Z,3.4